Terminal Aerodrome Forecast
Issued by NWS

Home | Current Version | Previous Version | Text Only | Print | Product List | Glossary On
Versions: 1 2 3 4 5 6 7 8 9 10 11 12 13
000
FTAK31 PAFA 292200 AAA
TAFABT
TAF AMD
PABT 292200Z 2922/3018 22010G18KT P6SM SCT025 BKN100
     FM300000 22010KT P6SM VCSH SCT025 BKN060
     FM300300 22005KT 5SM -RA BR BKN025
     FM300800 20005KT 4SM -RA BR OVC020=

USA.gov is the U.S. government's official web portal to all federal, state and local government web resources and services.